createdAt,value
2019-04-06T00:00:34.521Z,6.88
2019-04-06T00:01:34.571Z,6.87
2019-04-06T00:02:34.470Z,6.85
2019-04-06T00:03:35.627Z,6.84
2019-04-06T00:04:34.451Z,6.87
2019-04-06T00:05:34.554Z,6.89
2019-04-06T00:06:34.426Z,6.89
2019-04-06T00:07:34.507Z,6.81
2019-04-06T00:08:34.413Z,6.81
2019-04-06T00:09:43.151Z,6.92
2019-04-06T00:10:34.434Z,6.82
2019-04-06T00:11:34.377Z,6.84
2019-04-06T00:12:34.364Z,6.93
2019-04-06T00:13:34.483Z,6.88
2019-04-06T00:14:34.362Z,6.82
2019-04-06T00:15:34.527Z,6.89
2019-04-06T00:16:34.332Z,6.93
2019-04-06T00:17:34.313Z,6.85
2019-04-06T00:18:34.343Z,6.88
2019-04-06T00:19:34.398Z,6.82
2019-04-06T00:20:34.335Z,6.82
2019-04-06T00:21:34.410Z,6.89
2019-04-06T00:22:34.287Z,6.82
2019-04-06T00:23:34.249Z,6.88
2019-04-06T00:24:34.388Z,6.82
2019-04-06T00:25:43.743Z,6.85
2019-04-06T00:26:35.248Z,6.88
2019-04-06T00:27:34.365Z,6.93
2019-04-06T00:28:34.204Z,6.93
2019-04-06T00:29:34.181Z,6.92
2019-04-06T00:30:34.201Z,6.95
2019-04-06T00:31:35.311Z,6.82
2019-04-06T00:32:34.164Z,6.92
2019-04-06T00:33:34.309Z,6.93
2019-04-06T00:34:34.120Z,6.95
2019-04-06T00:35:35.169Z,6.92
2019-04-06T00:36:34.142Z,6.85
2019-04-06T00:37:36.297Z,6.87
2019-04-06T00:38:34.097Z,6.88
2019-04-06T00:39:36.224Z,6.88
2019-04-06T00:40:34.108Z,6.93
2019-04-06T00:41:34.084Z,6.99
2019-04-06T00:42:34.164Z,6.85
2019-04-06T00:43:34.052Z,6.89
2019-04-06T00:44:35.196Z,6.92
2019-04-06T00:45:34.039Z,6.96
2019-04-06T00:46:34.190Z,6.96
2019-04-06T00:47:33.993Z,6.93
2019-04-06T00:48:34.144Z,6.96
2019-04-06T00:49:33.968Z,6.87
2019-04-06T00:50:34.157Z,6.89
2019-04-06T00:51:33.955Z,6.92
2019-04-06T00:52:35.052Z,6.93
2019-04-06T00:53:33.949Z,6.88
2019-04-06T00:54:34.041Z,6.84
2019-04-06T00:55:33.934Z,6.87
2019-04-06T00:56:34.056Z,6.85
2019-04-06T00:57:33.934Z,6.87
2019-04-06T00:58:34.096Z,6.93
2019-04-06T00:59:33.898Z,6.92
2019-04-06T01:00:34.031Z,6.85
2019-04-06T01:01:33.868Z,6.84
2019-04-06T01:02:41.443Z,6.88
2019-04-06T01:03:33.822Z,6.88
2019-04-06T01:04:33.878Z,6.92
2019-04-06T01:05:33.847Z,6.93
2019-04-06T01:06:33.919Z,6.85
2019-04-06T01:07:33.838Z,6.89
2019-04-06T01:08:33.909Z,6.85
2019-04-06T01:09:33.749Z,6.84
2019-04-06T01:10:33.812Z,6.85
2019-04-06T01:11:33.751Z,6.85
2019-04-06T01:12:33.840Z,6.87
2019-04-06T01:13:33.712Z,6.93
2019-04-06T01:14:33.870Z,6.96
2019-04-06T01:15:33.722Z,6.92
2019-04-06T01:16:33.702Z,7.00
2019-04-06T01:17:33.709Z,6.85
2019-04-06T01:18:40.646Z,6.92
2019-04-06T01:19:33.669Z,6.92
2019-04-06T01:20:33.760Z,6.96
2019-04-06T01:21:33.644Z,6.89
2019-04-06T01:22:33.627Z,6.97
2019-04-06T01:23:33.695Z,6.99
2019-04-06T01:24:33.727Z,6.95
2019-04-06T01:25:33.619Z,6.95
2019-04-06T01:26:34.665Z,6.92
2019-04-06T01:27:33.570Z,6.96
2019-04-06T01:28:33.553Z,6.97
2019-04-06T01:29:33.541Z,6.97
2019-04-06T01:30:33.729Z,6.92
2019-04-06T01:31:33.544Z,6.95
2019-04-06T01:32:33.662Z,6.93
2019-04-06T01:33:33.516Z,6.92
2019-04-06T01:34:33.493Z,6.89
2019-04-06T01:35:33.529Z,6.85
2019-04-06T01:36:33.700Z,6.85
2019-04-06T01:37:34.971Z,6.95
2019-04-06T01:38:37.394Z,7.00
2019-04-06T01:39:33.469Z,6.96
2019-04-06T01:40:49.397Z,6.89
2019-04-06T01:41:34.657Z,6.85
2019-04-06T01:42:40.240Z,6.92
2019-04-06T01:43:33.496Z,6.95
2019-04-06T01:44:34.413Z,6.99
2019-04-06T01:45:33.373Z,6.95
2019-04-06T01:46:33.385Z,6.89
2019-04-06T01:47:33.393Z,6.88
2019-04-06T01:48:33.412Z,6.97
2019-04-06T01:49:33.330Z,6.96
2019-04-06T01:50:33.514Z,6.95
2019-04-06T01:51:33.306Z,6.95
2019-04-06T01:52:33.314Z,6.97
2019-04-06T01:53:33.322Z,7.03
2019-04-06T01:54:33.465Z,7.00
2019-04-06T01:55:33.267Z,6.87
2019-04-06T01:56:33.518Z,6.99
2019-04-06T01:57:33.262Z,6.95
2019-04-06T01:58:33.288Z,6.97
2019-04-06T01:59:34.479Z,6.93
2019-04-06T02:00:33.219Z,6.93
2019-04-06T02:01:35.339Z,6.97
2019-04-06T02:02:33.217Z,6.89
2019-04-06T02:03:34.343Z,6.97
2019-04-06T02:04:33.201Z,6.96
2019-04-06T02:05:34.317Z,7.00
2019-04-06T02:06:33.167Z,6.97
2019-04-06T02:07:55.349Z,7.05
2019-04-06T02:08:33.130Z,7.05
2019-04-06T02:09:48.066Z,7.00
2019-04-06T02:10:33.237Z,6.97
2019-04-06T02:11:34.277Z,6.96
2019-04-06T02:12:33.093Z,7.00
2019-04-06T02:13:35.393Z,7.03
2019-04-06T02:14:33.072Z,7.00
2019-04-06T02:15:33.227Z,6.88
2019-04-06T02:16:33.172Z,7.02
2019-04-06T02:17:33.198Z,6.99
2019-04-06T02:18:33.019Z,7.05
2019-04-06T02:19:35.153Z,7.03
2019-04-06T02:20:33.030Z,6.99
2019-04-06T02:21:33.191Z,7.02
2019-04-06T02:22:32.980Z,7.02
2019-04-06T02:23:35.183Z,7.03
2019-04-06T02:24:32.985Z,7.06
2019-04-06T02:25:33.192Z,7.10
2019-04-06T02:26:32.968Z,6.97
2019-04-06T02:27:32.941Z,7.11
2019-04-06T02:28:32.911Z,7.00
2019-04-06T02:29:33.083Z,6.97
2019-04-06T02:30:32.922Z,7.13
2019-04-06T02:31:33.232Z,6.97
2019-04-06T02:32:32.883Z,6.93
2019-04-06T02:33:32.940Z,7.14
2019-04-06T02:34:32.857Z,7.02
2019-04-06T02:35:32.928Z,7.00
2019-04-06T02:36:32.931Z,7.10
2019-04-06T02:37:32.943Z,7.13
2019-04-06T02:38:32.839Z,6.99
2019-04-06T02:39:32.831Z,7.00
2019-04-06T02:40:32.789Z,6.97
2019-04-06T02:41:32.862Z,7.10
2019-04-06T02:42:32.819Z,7.11
2019-04-06T02:43:34.976Z,7.13
2019-04-06T02:44:32.772Z,7.10
2019-04-06T02:45:32.759Z,7.06
2019-04-06T02:46:32.733Z,7.07
2019-04-06T02:47:33.909Z,7.07
2019-04-06T02:48:32.719Z,7.11
2019-04-06T02:49:34.766Z,7.07
2019-04-06T02:50:32.760Z,7.06
2019-04-06T02:51:32.700Z,7.14
2019-04-06T02:52:32.702Z,7.11
2019-04-06T02:53:34.711Z,7.13
2019-04-06T02:54:32.680Z,7.10
2019-04-06T02:55:33.686Z,7.10
2019-04-06T02:56:45.071Z,7.20
2019-04-06T02:57:33.652Z,7.13
2019-04-06T02:58:33.741Z,7.20
2019-04-06T02:59:32.594Z,7.15
2019-04-06T03:00:32.837Z,7.15
2019-04-06T03:01:32.598Z,7.18
2019-04-06T03:02:32.746Z,7.17
2019-04-06T03:03:32.717Z,7.18
2019-04-06T03:04:32.551Z,7.20
2019-04-06T03:05:32.665Z,7.15
2019-04-06T03:06:32.512Z,7.11
2019-04-06T03:07:34.615Z,7.14
2019-04-06T03:08:32.664Z,7.14
2019-04-06T03:09:32.494Z,7.28
2019-04-06T03:10:32.505Z,7.17
2019-04-06T03:11:32.588Z,7.15
2019-04-06T03:12:32.499Z,7.21
2019-04-06T03:13:32.552Z,7.31
2019-04-06T03:14:32.440Z,7.23
2019-04-06T03:15:32.467Z,7.17
2019-04-06T03:16:32.418Z,7.21
2019-04-06T03:17:32.601Z,7.23
2019-04-06T03:18:32.402Z,7.21
2019-04-06T03:19:35.811Z,7.24
2019-04-06T03:20:32.383Z,7.23
2019-04-06T03:21:32.388Z,7.17
2019-04-06T03:22:32.352Z,7.23
2019-04-06T03:23:32.788Z,7.24
2019-04-06T03:24:32.413Z,7.24
2019-04-06T03:25:33.457Z,7.25
2019-04-06T03:26:32.314Z,7.23
2019-04-06T03:27:32.324Z,7.18
2019-04-06T03:28:32.419Z,7.18
2019-04-06T03:29:32.306Z,7.25
2019-04-06T03:30:34.747Z,7.18
2019-04-06T03:31:32.584Z,7.24
2019-04-06T03:32:32.411Z,7.24
2019-04-06T03:33:32.338Z,7.20
2019-04-06T03:34:37.802Z,7.24
2019-04-06T03:35:32.218Z,7.24
2019-04-06T03:36:32.375Z,7.23
2019-04-06T03:37:32.230Z,7.23
2019-04-06T03:38:40.414Z,7.25
2019-04-06T03:39:32.222Z,7.29
2019-04-06T03:40:33.346Z,7.24
2019-04-06T03:41:32.158Z,7.31
2019-04-06T03:42:32.319Z,7.23
2019-04-06T03:43:32.200Z,7.25
2019-04-06T03:44:32.289Z,7.31
2019-04-06T03:45:32.117Z,7.23
2019-04-06T03:46:33.295Z,7.24
2019-04-06T03:47:32.107Z,7.28
2019-04-06T03:48:33.186Z,7.28
2019-04-06T03:49:32.123Z,7.29
2019-04-06T03:50:41.198Z,7.18
2019-04-06T03:51:32.063Z,7.31
2019-04-06T03:52:32.213Z,7.24
2019-04-06T03:53:32.034Z,7.17
2019-04-06T03:54:32.164Z,7.33
2019-04-06T03:55:32.013Z,7.23
2019-04-06T03:56:32.140Z,7.23
2019-04-06T03:57:31.996Z,7.24
2019-04-06T03:58:32.134Z,7.21
2019-04-06T03:59:32.051Z,7.24
2019-04-06T04:00:33.070Z,7.25
2019-04-06T04:01:31.961Z,7.28
2019-04-06T04:02:32.011Z,7.32
2019-04-06T04:03:31.955Z,7.28
2019-04-06T04:04:32.147Z,7.24
2019-04-06T04:05:31.901Z,7.29
2019-04-06T04:06:38.643Z,7.23
2019-04-06T04:07:31.905Z,7.25
2019-04-06T04:08:31.994Z,7.20
2019-04-06T04:09:31.911Z,7.32
2019-04-06T04:10:33.968Z,7.25
2019-04-06T04:11:31.868Z,7.25
2019-04-06T04:12:32.053Z,7.21
2019-04-06T04:13:31.843Z,7.24
2019-04-06T04:14:31.870Z,7.20
2019-04-06T04:15:31.806Z,7.23
2019-04-06T04:16:31.979Z,7.25
2019-04-06T04:17:31.792Z,7.25
2019-04-06T04:18:33.946Z,7.21
2019-04-06T04:19:31.973Z,7.25
2019-04-06T04:20:31.766Z,7.31
2019-04-06T04:21:31.751Z,7.25
2019-04-06T04:22:34.549Z,7.29
2019-04-06T04:23:31.703Z,7.29
2019-04-06T04:24:35.282Z,7.23
2019-04-06T04:25:31.710Z,7.31
2019-04-06T04:26:31.706Z,7.25
2019-04-06T04:27:31.675Z,7.23
2019-04-06T04:28:38.721Z,7.23
2019-04-06T04:29:31.705Z,7.23
2019-04-06T04:30:33.967Z,7.25
2019-04-06T04:31:31.983Z,7.20
2019-04-06T04:32:31.645Z,7.33
2019-04-06T04:33:31.739Z,7.35
2019-04-06T04:34:32.897Z,7.31
2019-04-06T04:35:31.609Z,7.31
2019-04-06T04:36:39.685Z,7.31
2019-04-06T04:37:31.578Z,7.24
2019-04-06T04:38:31.778Z,7.31
2019-04-06T04:39:31.608Z,7.29
2019-04-06T04:40:39.701Z,7.29
2019-04-06T04:41:31.710Z,7.33
2019-04-06T04:42:32.677Z,7.31
2019-04-06T04:43:31.544Z,7.31
2019-04-06T04:44:31.535Z,7.32
2019-04-06T04:45:31.493Z,7.38
2019-04-06T04:46:33.598Z,7.35
2019-04-06T04:47:31.716Z,7.32
2019-04-06T04:48:31.680Z,7.33
2019-04-06T04:49:31.473Z,7.36
2019-04-06T04:50:31.432Z,7.32
2019-04-06T04:51:31.585Z,7.35
2019-04-06T04:52:31.419Z,7.32
2019-04-06T04:53:31.641Z,7.32
2019-04-06T04:54:31.542Z,7.28
2019-04-06T04:55:39.214Z,7.36
2019-04-06T04:56:31.377Z,7.33
2019-04-06T04:57:40.193Z,7.31
2019-04-06T04:58:32.354Z,7.33
2019-04-06T04:59:32.542Z,7.36
2019-04-06T05:00:31.354Z,7.35
2019-04-06T05:01:31.499Z,7.36
2019-04-06T05:02:31.448Z,7.38
2019-04-06T05:03:32.494Z,7.36
2019-04-06T05:04:31.325Z,7.38
2019-04-06T05:05:32.423Z,7.40
2019-04-06T05:06:31.267Z,7.47
2019-04-06T05:07:32.446Z,7.38
2019-04-06T05:08:31.269Z,7.36
2019-04-06T05:09:33.417Z,7.51
2019-04-06T05:10:31.283Z,7.40
2019-04-06T05:11:31.440Z,7.36
2019-04-06T05:12:31.305Z,7.47
2019-04-06T05:13:31.352Z,7.42
2019-04-06T05:14:31.279Z,7.40
2019-04-06T05:15:40.245Z,7.39
2019-04-06T05:16:31.167Z,7.39
2019-04-06T05:17:31.290Z,7.40
2019-04-06T05:18:31.202Z,7.42
2019-04-06T05:19:31.183Z,7.43
2019-04-06T05:20:31.192Z,7.43
2019-04-06T05:21:31.216Z,7.47
2019-04-06T05:22:31.110Z,7.45
2019-04-06T05:23:32.139Z,7.45
2019-04-06T05:24:31.592Z,7.45
2019-04-06T05:25:31.088Z,7.48
2019-04-06T05:26:37.390Z,7.43
2019-04-06T05:27:33.099Z,7.51
2019-04-06T05:28:31.217Z,7.51
2019-04-06T05:29:33.041Z,7.50
2019-04-06T05:30:31.039Z,7.50
2019-04-06T05:31:31.012Z,7.45
2019-04-06T05:32:31.011Z,7.50
2019-04-06T05:33:32.130Z,7.48
2019-04-06T05:34:31.006Z,7.47
2019-04-06T05:35:32.124Z,7.45
2019-04-06T05:36:30.957Z,7.42
2019-04-06T05:37:30.963Z,7.48
2019-04-06T05:38:30.946Z,7.39
2019-04-06T05:39:32.023Z,7.51
2019-04-06T05:40:30.955Z,7.47
2019-04-06T05:41:30.973Z,7.45
2019-04-06T05:42:30.908Z,7.53
2019-04-06T05:43:30.901Z,7.54
2019-04-06T05:44:31.072Z,7.58
2019-04-06T05:45:30.872Z,7.57
2019-04-06T05:46:31.018Z,7.57
2019-04-06T05:47:30.845Z,7.67
2019-04-06T05:48:31.055Z,7.72
2019-04-06T05:49:30.979Z,7.67
2019-04-06T05:50:30.812Z,7.79
2019-04-06T05:51:30.938Z,7.75
2019-04-06T05:52:30.799Z,7.94
2019-04-06T05:53:31.877Z,7.91
2019-04-06T05:54:30.796Z,7.95
2019-04-06T05:55:30.784Z,7.95
2019-04-06T05:56:30.889Z,8.06
2019-04-06T05:57:32.057Z,8.16
2019-04-06T05:58:31.830Z,8.10
2019-04-06T05:59:30.753Z,8.15
2019-04-06T06:00:32.869Z,8.20
2019-04-06T06:01:30.831Z,8.20
2019-04-06T06:02:31.851Z,8.27
2019-04-06T06:03:31.538Z,8.31
2019-04-06T06:04:30.798Z,8.33
2019-04-06T06:05:30.814Z,8.33
2019-04-06T06:06:37.733Z,8.31
2019-04-06T06:07:30.622Z,8.36
2019-04-06T06:08:37.638Z,8.31
2019-04-06T06:09:30.648Z,8.34
2019-04-06T06:10:31.724Z,8.34
2019-04-06T06:11:30.696Z,8.44
2019-04-06T06:12:30.699Z,8.48
2019-04-06T06:13:30.577Z,8.53
2019-04-06T06:14:30.698Z,8.52
2019-04-06T06:15:30.739Z,8.60
2019-04-06T06:16:30.637Z,8.52
2019-04-06T06:17:30.541Z,8.60
2019-04-06T06:18:30.508Z,8.64
2019-04-06T06:19:30.548Z,8.58
2019-04-06T06:20:32.627Z,8.66
2019-04-06T06:21:30.480Z,8.73
2019-04-06T06:22:30.570Z,8.71
2019-04-06T06:23:30.474Z,8.76
2019-04-06T06:24:30.494Z,8.74
2019-04-06T06:25:30.532Z,8.84
2019-04-06T06:26:30.514Z,8.78
2019-04-06T06:27:30.446Z,8.76
2019-04-06T06:28:30.468Z,8.85
2019-04-06T06:29:30.471Z,8.81
2019-04-06T06:30:30.385Z,8.91
2019-04-06T06:31:31.581Z,8.99
2019-04-06T06:32:31.361Z,8.95
2019-04-06T06:33:30.532Z,9.08
2019-04-06T06:34:30.438Z,9.00
2019-04-06T06:35:30.476Z,9.06
2019-04-06T06:36:30.301Z,9.23
2019-04-06T06:37:30.474Z,9.16
2019-04-06T06:38:30.424Z,9.18
2019-04-06T06:39:31.455Z,9.14
2019-04-06T06:40:30.327Z,9.16
2019-04-06T06:41:31.430Z,9.14
2019-04-06T06:42:30.291Z,9.16
2019-04-06T06:43:30.440Z,9.16
2019-04-06T06:44:30.262Z,9.19
2019-04-06T06:45:30.439Z,9.21
2019-04-06T06:46:30.207Z,9.18
2019-04-06T06:47:31.356Z,9.16
2019-04-06T06:48:30.236Z,9.19
2019-04-06T06:49:30.408Z,9.29
2019-04-06T06:50:30.170Z,9.13
2019-04-06T06:51:30.520Z,9.28
2019-04-06T06:52:30.182Z,9.23
2019-04-06T06:53:38.161Z,9.26
2019-04-06T06:54:30.175Z,9.21
2019-04-06T06:55:31.428Z,9.19
2019-04-06T06:56:30.106Z,9.21
2019-04-06T06:57:30.204Z,9.26
2019-04-06T06:58:30.358Z,9.21
2019-04-06T06:59:31.304Z,9.21
2019-04-06T07:00:30.056Z,9.28
2019-04-06T07:01:31.162Z,9.23
2019-04-06T07:02:30.062Z,9.29
2019-04-06T07:03:30.156Z,9.29
2019-04-06T07:04:30.108Z,9.36
2019-04-06T07:05:31.201Z,9.44
2019-04-06T07:06:30.016Z,9.39
2019-04-06T07:07:30.073Z,9.40
2019-04-06T07:08:30.021Z,9.37
2019-04-06T07:09:30.152Z,9.34
2019-04-06T07:10:29.964Z,9.36
2019-04-06T07:11:31.121Z,9.32
2019-04-06T07:12:29.948Z,9.34
2019-04-06T07:13:30.110Z,9.31
2019-04-06T07:14:29.971Z,9.37
2019-04-06T07:15:32.085Z,9.31
2019-04-06T07:16:29.961Z,9.23
2019-04-06T07:17:30.053Z,9.39
2019-04-06T07:18:29.927Z,9.36
2019-04-06T07:19:31.022Z,9.34
2019-04-06T07:20:29.870Z,9.39
2019-04-06T07:21:30.171Z,9.39
2019-04-06T07:22:29.851Z,9.44
2019-04-06T07:23:32.023Z,9.41
2019-04-06T07:24:29.832Z,9.43
2019-04-06T07:25:30.912Z,9.40
2019-04-06T07:26:29.784Z,9.39
2019-04-06T07:27:29.899Z,9.43
2019-04-06T07:28:37.519Z,9.50
2019-04-06T07:29:30.795Z,9.51
2019-04-06T07:30:29.757Z,9.50
2019-04-06T07:31:29.933Z,9.55
2019-04-06T07:32:29.714Z,9.61
2019-04-06T07:33:30.076Z,9.62
2019-04-06T07:34:29.736Z,9.68
2019-04-06T07:35:29.868Z,9.64
2019-04-06T07:36:29.792Z,9.80
2019-04-06T07:37:29.940Z,9.74
2019-04-06T07:38:29.677Z,9.72
2019-04-06T07:39:31.893Z,9.79
2019-04-06T07:40:29.820Z,9.80
2019-04-06T07:41:30.816Z,9.76
2019-04-06T07:42:29.622Z,9.83
2019-04-06T07:43:30.728Z,9.77
2019-04-06T07:44:29.624Z,9.86
2019-04-06T07:45:36.696Z,9.82
2019-04-06T07:46:29.597Z,9.86
2019-04-06T07:47:29.763Z,9.79
2019-04-06T07:48:29.585Z,9.87
2019-04-06T07:49:29.736Z,9.92
2019-04-06T07:50:29.557Z,9.97
2019-04-06T07:51:29.675Z,9.95
2019-04-06T07:52:29.506Z,9.91
2019-04-06T07:53:38.364Z,9.98
2019-04-06T07:54:29.534Z,9.94
2019-04-06T07:55:29.695Z,10.07
2019-04-06T07:56:29.485Z,10.01
2019-04-06T07:57:29.730Z,10.01
2019-04-06T07:58:29.447Z,9.99
2019-04-06T07:59:29.797Z,10.02
2019-04-06T08:00:29.427Z,10.05
2019-04-06T08:01:30.547Z,10.09
2019-04-06T08:02:29.492Z,10.02
2019-04-06T08:03:30.581Z,10.04
2019-04-06T08:04:29.437Z,10.17
2019-04-06T08:05:29.564Z,10.15
2019-04-06T08:06:29.345Z,10.17
2019-04-06T08:07:30.511Z,10.26
2019-04-06T08:08:29.356Z,10.19
2019-04-06T08:09:29.541Z,10.20
2019-04-06T08:10:29.346Z,10.25
2019-04-06T08:11:29.379Z,10.26
2019-04-06T08:12:29.494Z,10.25
2019-04-06T08:13:29.292Z,10.31
2019-04-06T08:14:32.894Z,10.20
2019-04-06T08:15:29.261Z,10.20
2019-04-06T08:16:29.422Z,10.31
2019-04-06T08:17:29.250Z,10.30
2019-04-06T08:18:29.236Z,10.30
2019-04-06T08:19:31.861Z,10.34
2019-04-06T08:20:29.349Z,10.37
2019-04-06T08:21:31.355Z,10.31
2019-04-06T08:22:29.206Z,10.35
2019-04-06T08:23:31.249Z,10.38
2019-04-06T08:24:29.209Z,10.37
2019-04-06T08:25:36.181Z,10.53
2019-04-06T08:26:29.156Z,10.49
2019-04-06T08:27:36.060Z,10.51
2019-04-06T08:28:29.324Z,10.59
2019-04-06T08:29:29.245Z,10.61
2019-04-06T08:30:29.253Z,10.61
2019-04-06T08:31:29.103Z,10.74
2019-04-06T08:32:29.186Z,10.68
2019-04-06T08:33:29.099Z,10.69
2019-04-06T08:34:29.234Z,10.75
2019-04-06T08:35:29.051Z,10.75
2019-04-06T08:36:29.060Z,10.81
2019-04-06T08:37:29.039Z,10.78
2019-04-06T08:38:29.345Z,10.94
2019-04-06T08:39:29.057Z,11.00
2019-04-06T08:40:29.161Z,10.90
2019-04-06T08:41:28.992Z,11.02
2019-04-06T08:42:28.973Z,10.90
2019-04-06T08:43:28.980Z,10.99
2019-04-06T08:44:30.167Z,11.10
2019-04-06T08:45:28.954Z,11.10
2019-04-06T08:46:30.085Z,11.11
2019-04-06T08:47:28.976Z,11.26
2019-04-06T08:48:28.915Z,11.23
2019-04-06T08:49:28.959Z,11.22
2019-04-06T08:50:29.040Z,11.22
2019-04-06T08:51:28.900Z,11.10
2019-04-06T08:52:29.916Z,11.19
2019-04-06T08:53:28.883Z,11.19
2019-04-06T08:54:29.995Z,11.30
2019-04-06T08:55:28.849Z,11.29
2019-04-06T08:56:31.717Z,11.35
2019-04-06T08:57:28.833Z,11.32
2019-04-06T08:58:30.846Z,11.41
2019-04-06T08:59:28.824Z,11.40
2019-04-06T09:00:29.102Z,11.43
2019-04-06T09:01:28.805Z,11.55
2019-04-06T09:02:29.921Z,11.55
2019-04-06T09:03:28.761Z,11.60
2019-04-06T09:04:28.898Z,11.57
2019-04-06T09:05:28.734Z,11.55
2019-04-06T09:06:28.719Z,11.57
2019-04-06T09:07:28.731Z,11.52
2019-04-06T09:08:28.854Z,11.63
2019-04-06T09:09:28.718Z,11.77
2019-04-06T09:10:28.826Z,11.88
2019-04-06T09:11:28.728Z,11.87
2019-04-06T09:12:28.707Z,12.02
2019-04-06T09:13:28.682Z,12.10
2019-04-06T09:14:29.731Z,12.21
2019-04-06T09:15:28.951Z,12.35
2019-04-06T09:16:30.718Z,12.43
2019-04-06T09:17:28.601Z,12.49
2019-04-06T09:18:29.155Z,12.49
2019-04-06T09:19:28.669Z,12.62
2019-04-06T09:20:28.690Z,12.75
2019-04-06T09:21:28.583Z,12.67
2019-04-06T09:22:28.689Z,12.78
2019-04-06T09:23:28.661Z,12.76
2019-04-06T09:24:28.662Z,12.73
2019-04-06T09:25:28.543Z,12.90
2019-04-06T09:26:28.758Z,12.97
2019-04-06T09:27:28.546Z,13.03
2019-04-06T09:28:29.732Z,13.13
2019-04-06T09:29:28.528Z,13.25
2019-04-06T09:30:28.531Z,13.20
2019-04-06T09:31:28.458Z,13.33
2019-04-06T09:32:28.601Z,13.37
2019-04-06T09:33:28.765Z,13.53
2019-04-06T09:34:30.683Z,13.54
2019-04-06T09:35:28.432Z,13.63
2019-04-06T09:36:29.557Z,13.60
2019-04-06T09:37:28.401Z,13.72
2019-04-06T09:38:28.620Z,13.83
2019-04-06T09:39:28.439Z,13.85
2019-04-06T09:40:28.569Z,13.96
2019-04-06T09:41:28.358Z,13.97
2019-04-06T09:42:36.898Z,14.05
2019-04-06T09:43:28.346Z,14.08
2019-04-06T09:44:33.678Z,14.07
2019-04-06T09:45:28.486Z,14.05
2019-04-06T09:46:28.512Z,14.05
2019-04-06T09:47:28.899Z,14.25
2019-04-06T09:48:28.423Z,14.36
2019-04-06T09:49:28.314Z,14.40
2019-04-06T09:50:28.445Z,14.47
2019-04-06T09:51:28.283Z,14.51
2019-04-06T09:52:28.356Z,14.53
2019-04-06T09:53:28.214Z,14.48
2019-04-06T09:54:29.464Z,14.65
2019-04-06T09:55:28.216Z,14.51
2019-04-06T09:56:29.421Z,14.53
2019-04-06T09:57:28.183Z,14.51
2019-04-06T09:58:28.292Z,14.51
2019-04-06T09:59:35.249Z,14.65
2019-04-06T10:00:29.136Z,14.55
2019-04-06T10:01:37.397Z,14.66
2019-04-06T10:02:29.175Z,14.63
2019-04-06T10:03:28.241Z,14.70
2019-04-06T10:04:28.144Z,14.82
2019-04-06T10:05:28.142Z,14.89
2019-04-06T10:06:28.085Z,14.97
2019-04-06T10:07:28.358Z,14.91
2019-04-06T10:08:28.060Z,14.86
2019-04-06T10:09:28.350Z,14.84
2019-04-06T10:10:28.384Z,15.03
2019-04-06T10:11:28.085Z,15.03
2019-04-06T10:12:28.037Z,15.17
2019-04-06T10:13:28.180Z,15.17
2019-04-06T10:14:28.034Z,15.11
2019-04-06T10:15:28.135Z,15.06
2019-04-06T10:16:28.093Z,15.02
2019-04-06T10:17:28.099Z,14.92
2019-04-06T10:18:28.025Z,14.84
2019-04-06T10:19:28.168Z,14.72
2019-04-06T10:20:27.967Z,14.68
2019-04-06T10:21:28.070Z,14.58
2019-04-06T10:22:27.939Z,14.62
2019-04-06T10:23:28.024Z,14.53
2019-04-06T10:24:27.925Z,14.40
2019-04-06T10:25:27.902Z,14.51
2019-04-06T10:26:28.251Z,14.50
2019-04-06T10:27:27.864Z,14.30
2019-04-06T10:28:27.945Z,14.36
2019-04-06T10:29:27.889Z,14.32
2019-04-06T10:30:28.213Z,14.32
2019-04-06T10:31:27.826Z,14.28
2019-04-06T10:32:27.948Z,14.25
2019-04-06T10:33:27.805Z,14.25
2019-04-06T10:34:27.964Z,14.03
2019-04-06T10:35:27.914Z,14.08
2019-04-06T10:36:27.778Z,14.14
2019-04-06T10:37:27.784Z,14.23
2019-04-06T10:38:27.909Z,14.37
2019-04-06T10:39:27.791Z,14.41
2019-04-06T10:40:27.848Z,14.47
2019-04-06T10:41:27.713Z,14.53
2019-04-06T10:42:28.970Z,14.62
2019-04-06T10:43:27.745Z,14.60
2019-04-06T10:44:28.030Z,14.59
2019-04-06T10:45:27.690Z,14.60
2019-04-06T10:46:28.760Z,14.55
2019-04-06T10:47:27.680Z,14.72
2019-04-06T10:48:27.633Z,14.68
2019-04-06T10:49:27.655Z,14.58
2019-04-06T10:50:28.726Z,14.55
2019-04-06T10:51:27.613Z,14.62
2019-04-06T10:52:27.648Z,14.54
2019-04-06T10:53:27.603Z,14.62
2019-04-06T10:54:27.820Z,14.48
2019-04-06T10:55:27.571Z,14.43
2019-04-06T10:56:27.581Z,14.44
2019-04-06T10:57:27.758Z,14.45
2019-04-06T10:58:27.729Z,14.43
2019-04-06T10:59:27.560Z,14.48
2019-04-06T11:00:27.518Z,14.43
2019-04-06T11:01:27.515Z,14.51
2019-04-06T11:02:27.786Z,14.53
2019-04-06T11:03:27.577Z,14.81
2019-04-06T11:04:27.697Z,14.91
2019-04-06T11:05:27.550Z,15.14
2019-04-06T11:06:27.443Z,15.22
2019-04-06T11:07:27.439Z,15.47
2019-04-06T11:08:27.553Z,15.58
2019-04-06T11:09:27.460Z,15.65
2019-04-06T11:10:27.630Z,15.75
2019-04-06T11:11:27.439Z,15.84
2019-04-06T11:12:27.375Z,15.84
2019-04-06T11:13:27.390Z,15.97
2019-04-06T11:14:27.792Z,15.97
2019-04-06T11:15:27.363Z,16.10
2019-04-06T11:16:27.399Z,16.41
2019-04-06T11:17:27.343Z,16.43
2019-04-06T11:18:27.345Z,16.43
2019-04-06T11:19:27.369Z,16.68
2019-04-06T11:20:27.684Z,16.90
2019-04-06T11:21:27.622Z,17.23
2019-04-06T11:22:27.272Z,17.68
2019-04-06T11:23:27.350Z,18.15
2019-04-06T11:24:27.280Z,18.65
2019-04-06T11:25:27.257Z,18.88
2019-04-06T11:26:27.538Z,19.36
2019-04-06T11:27:28.309Z,19.70
2019-04-06T11:28:27.194Z,20.03
2019-04-06T11:29:27.219Z,20.26
2019-04-06T11:30:27.438Z,20.40
2019-04-06T11:31:27.182Z,20.14
2019-04-06T11:32:27.414Z,19.88
2019-04-06T11:33:29.259Z,19.74
2019-04-06T11:34:27.188Z,19.58
2019-04-06T11:35:27.372Z,19.37
2019-04-06T11:36:27.443Z,19.19
2019-04-06T11:37:27.406Z,19.36
2019-04-06T11:38:27.108Z,19.89
2019-04-06T11:39:27.276Z,20.29
2019-04-06T11:40:27.077Z,20.70
2019-04-06T11:41:27.070Z,20.60
2019-04-06T11:42:27.162Z,20.88
2019-04-06T11:43:27.041Z,20.88
2019-04-06T11:44:27.153Z,20.80
2019-04-06T11:45:27.027Z,21.00
2019-04-06T11:46:27.088Z,21.09
2019-04-06T11:47:27.034Z,20.74
2019-04-06T11:48:27.207Z,20.28
2019-04-06T11:49:27.004Z,19.86
2019-04-06T11:50:27.267Z,19.66
2019-04-06T11:51:26.958Z,19.31
2019-04-06T11:52:27.134Z,19.18
2019-04-06T11:53:27.240Z,18.74
2019-04-06T11:54:28.335Z,18.40
2019-04-06T11:55:27.241Z,18.22
2019-04-06T11:56:28.062Z,17.97
2019-04-06T11:57:27.100Z,17.79
2019-04-06T11:58:27.078Z,17.68
2019-04-06T11:59:26.948Z,17.51
2019-04-06T12:00:28.100Z,18.05
2019-04-06T12:01:26.874Z,18.41
2019-04-06T12:02:27.127Z,18.68
2019-04-06T12:03:26.848Z,18.73
2019-04-06T12:04:27.149Z,19.00
2019-04-06T12:05:27.234Z,19.51
2019-04-06T12:06:26.794Z,19.94
2019-04-06T12:07:27.235Z,20.22
2019-04-06T12:08:26.798Z,20.36
2019-04-06T12:09:27.270Z,20.39
2019-04-06T12:10:26.762Z,20.81
2019-04-06T12:11:26.947Z,21.14
2019-04-06T12:12:26.734Z,21.39
2019-04-06T12:13:26.859Z,21.25
2019-04-06T12:14:26.752Z,20.77
2019-04-06T12:15:27.891Z,20.31
2019-04-06T12:16:26.744Z,19.88
2019-04-06T12:17:26.887Z,19.58
2019-04-06T12:18:26.687Z,19.21
2019-04-06T12:19:32.302Z,19.36
2019-04-06T12:20:26.662Z,19.27
2019-04-06T12:21:34.695Z,19.14
2019-04-06T12:22:26.640Z,19.11
2019-04-06T12:23:28.795Z,19.00
2019-04-06T12:24:26.877Z,18.90
2019-04-06T12:25:27.047Z,18.92
2019-04-06T12:26:26.598Z,18.86
2019-04-06T12:27:28.711Z,18.98
2019-04-06T12:28:26.559Z,19.07
2019-04-06T12:29:27.752Z,18.96
2019-04-06T12:30:36.679Z,18.84
2019-04-06T12:31:27.748Z,18.65
2019-04-06T12:32:26.690Z,18.49
2019-04-06T12:33:26.515Z,18.08
2019-04-06T12:34:27.095Z,17.46
2019-04-06T12:35:26.769Z,16.61
2019-04-06T12:36:26.613Z,16.31
2019-04-06T12:37:26.471Z,16.04
2019-04-06T12:38:26.625Z,16.04
2019-04-06T12:39:26.477Z,16.10
2019-04-06T12:40:26.740Z,16.13
2019-04-06T12:41:27.566Z,16.47
2019-04-06T12:42:26.434Z,16.87
2019-04-06T12:43:26.796Z,17.23
2019-04-06T12:44:26.739Z,18.04
2019-04-06T12:45:26.590Z,18.83
2019-04-06T12:46:26.394Z,19.63
2019-04-06T12:47:26.477Z,20.39
2019-04-06T12:48:26.355Z,20.90
2019-04-06T12:49:26.730Z,21.29
2019-04-06T12:50:26.339Z,21.40
2019-04-06T12:51:26.416Z,21.73
2019-04-06T12:52:26.311Z,21.52
2019-04-06T12:53:26.341Z,21.24
2019-04-06T12:54:26.311Z,20.84
2019-04-06T12:55:27.478Z,20.58
2019-04-06T12:56:26.274Z,20.16
2019-04-06T12:57:33.110Z,20.03
2019-04-06T12:58:26.248Z,19.66
2019-04-06T12:59:26.651Z,19.24
2019-04-06T13:00:26.211Z,18.92
2019-04-06T13:01:33.141Z,18.75
2019-04-06T13:02:26.213Z,18.56
2019-04-06T13:03:26.322Z,18.40
2019-04-06T13:04:26.214Z,18.26
2019-04-06T13:05:26.210Z,18.11
2019-04-06T13:06:26.410Z,17.94
2019-04-06T13:07:26.230Z,18.34
2019-04-06T13:08:26.147Z,18.93